Time;durP1;ratioP1;P1;durP2;ratioP2;P2;SDS_P1;SDS_P2;PMS_P1;PMS_P2;Temp;Humidity;BMP_temperature;BMP_pressure;BME280_temperature;BME280_humidity;BME280_pressure;Samples;Min_cycle;Max_cycle;Signal;HPM_P1;HPM_P2
2023/12/15 00:02:19;;;;;;;;;;;;;;;9.55;71.44;99228.13;5090071;28;20397;-80
2023/12/15 00:04:45;;;;;;;;;;;;;;;9.53;71.23;99241.50;5094705;28;19912;-81
2023/12/15 00:07:10;;;;;;;;;;;;;;;9.54;70.90;99237.03;5094979;28;19920;-80
2023/12/15 00:09:35;;;;;;;;;;;;;;;9.53;71.12;99240.69;5093903;28;19912;-81
2023/12/15 00:12:01;;;;;;;;;;;;;;;9.52;70.87;99245.13;5095055;28;19939;-80
2023/12/15 00:14:26;;;;;;;;;;;;;;;9.51;71.02;99251.41;5095142;28;19916;-80
2023/12/15 00:16:51;;;;;;;;;;;;;;;9.50;70.86;99254.22;5095114;28;19952;-80
2023/12/15 00:19:17;;;;;;;;;;;;;;;9.52;71.05;99260.13;5095070;28;20400;-80
2023/12/15 00:21:42;;;;;;;;;;;;;;;9.51;71.25;99259.31;5094991;28;20400;-80
2023/12/15 00:24:08;;;;;;;;;;;;;;;9.53;70.85;99256.47;5095012;28;20397;-80
2023/12/15 00:26:34;;;;;;;;;;;;;;;9.54;71.11;99261.59;5094867;28;19965;-80
2023/12/15 00:28:59;;;;;;;;;;;;;;;9.57;70.82;99276.22;5094728;28;19940;-80
2023/12/15 00:31:25;;;;;;;;;;;;;;;9.55;70.87;99284.31;5094624;28;19920;-81
2023/12/15 00:33:50;;;;;;;;;;;;;;;9.54;70.46;99280.03;5094711;28;19908;-80
2023/12/15 00:36:15;;;;;;;;;;;;;;;9.51;70.55;99290.09;5093453;28;19927;-80
2023/12/15 00:38:41;;;;;;;;;;;;;;;9.55;70.59;99297.47;5094955;28;19912;-80
2023/12/15 00:41:06;;;;;;;;;;;;;;;9.54;70.53;99292.38;5093386;28;19924;-80
2023/12/15 00:43:31;;;;;;;;;;;;;;;9.52;70.35;99295.19;5094620;28;19935;-82
2023/12/15 00:45:57;;;;;;;;;;;;;;;9.49;70.23;99305.28;5094559;28;19919;-82
2023/12/15 00:48:22;;;;;;;;;;;;;;;9.52;70.23;99311.00;5094624;28;19912;-82
2023/12/15 00:50:47;;;;;;;;;;;;;;;9.49;69.81;99314.00;5094655;28;20289;-81
2023/12/15 00:53:13;;;;;;;;;;;;;;;9.52;70.33;99308.38;5094573;28;19916;-81
2023/12/15 00:55:38;;;;;;;;;;;;;;;9.52;70.57;99326.00;5094302;28;19912;-81
2023/12/15 00:58:04;;;;;;;;;;;;;;;9.51;70.62;99325.19;5094311;28;19912;-81
2023/12/15 01:00:30;;;;;;;;;;;;;;;9.49;70.39;99319.28;5094209;28;19912;-81
2023/12/15 01:02:55;;;;;;;;;;;;;;;9.50;69.93;99320.09;5094154;28;19924;-80
2023/12/15 01:05:20;;;;;;;;;;;;;;;9.47;70.20;99326.53;5094116;28;20355;-81
2023/12/15 01:07:46;;;;;;;;;;;;;;;9.49;70.28;99329.81;5094057;28;20354;-80
2023/12/15 01:10:11;;;;;;;;;;;;;;;9.44;69.93;99339.25;5094068;28;20487;-80
2023/12/15 01:12:37;;;;;;;;;;;;;;;9.40;70.26;99343.22;5093850;28;20367;-80
2023/12/15 01:15:02;;;;;;;;;;;;;;;9.43;70.26;99340.25;5093728;28;19919;-80
2023/12/15 01:17:27;;;;;;;;;;;;;;;9.43;70.09;99343.69;5092579;28;20305;-80
2023/12/15 01:19:53;;;;;;;;;;;;;;;9.45;70.29;99344.34;5093905;28;19916;-80
2023/12/15 01:22:18;;;;;;;;;;;;;;;9.47;69.80;99352.06;5092325;28;19923;-80
2023/12/15 01:24:44;;;;;;;;;;;;;;;9.43;69.89;99356.06;5094113;28;19923;-80
2023/12/15 01:27:10;;;;;;;;;;;;;;;9.39;70.25;99345.03;5093819;28;20417;-80
2023/12/15 01:29:35;;;;;;;;;;;;;;;9.41;70.11;99348.31;5093418;28;19926;-81
2023/12/15 01:32:01;;;;;;;;;;;;;;;9.43;69.97;99348.97;5093381;28;19995;-80
2023/12/15 01:34:26;;;;;;;;;;;;;;;9.43;70.28;99353.41;5092184;28;19962;-80
2023/12/15 01:36:51;;;;;;;;;;;;;;;9.42;70.35;99360.50;5093555;28;19927;-80
2023/12/15 01:39:17;;;;;;;;;;;;;;;9.46;69.97;99359.16;5093627;28;20400;-81
2023/12/15 01:41:42;;;;;;;;;;;;;;;9.47;70.26;99359.97;5093441;28;19939;-80
2023/12/15 01:44:07;;;;;;;;;;;;;;;9.49;70.20;99366.72;5093421;28;19912;-80
2023/12/15 01:46:33;;;;;;;;;;;;;;;9.50;69.68;99367.53;5093520;28;19923;-80
2023/12/15 01:48:58;;;;;;;;;;;;;;;9.49;70.08;99371.16;5093333;28;19912;-80
2023/12/15 01:51:23;;;;;;;;;;;;;;;9.50;69.56;99360.44;5093523;28;19965;-80
2023/12/15 01:53:49;;;;;;;;;;;;;;;9.50;70.09;99365.72;5091829;28;19916;-80
2023/12/15 01:56:14;;;;;;;;;;;;;;;9.53;69.84;99372.44;5092797;28;19927;-80
2023/12/15 01:58:39;;;;;;;;;;;;;;;9.52;69.86;99376.06;5092928;28;19912;-80
2023/12/15 02:01:06;;;;;;;;;;;;;;;9.49;69.61;99377.25;5091569;28;19916;-80
2023/12/15 02:03:31;;;;;;;;;;;;;;;9.47;69.44;99371.34;5093028;28;19916;-80
2023/12/15 02:05:57;;;;;;;;;;;;;;;9.47;69.56;99368.69;5092831;28;20335;-80
2023/12/15 02:08:22;;;;;;;;;;;;;;;9.47;69.72;99379.25;5092929;28;19912;-81
2023/12/15 02:10:47;;;;;;;;;;;;;;;9.43;69.93;99387.66;5093078;28;19994;-80
2023/12/15 02:13:13;;;;;;;;;;;;;;;9.44;69.99;99390.13;5091541;28;19916;-80
2023/12/15 02:15:38;;;;;;;;;;;;;;;9.45;69.47;99385.69;5093065;28;19904;-80
2023/12/15 02:18:03;;;;;;;;;;;;;;;9.45;70.06;99385.69;5092823;28;19969;-80
2023/12/15 02:20:30;;;;;;;;;;;;;;;9.36;69.52;99392.00;5092688;28;20010;-81
2023/12/15 02:22:57;;;;;;;;;;;;;;;9.39;69.45;99407.47;5092604;28;19916;-81
2023/12/15 02:25:23;;;;;;;;;;;;;;;9.39;70.05;99418.00;5092476;28;19919;-81
2023/12/15 02:27:48;;;;;;;;;;;;;;;9.39;69.59;99413.53;5092099;28;19912;-81
2023/12/15 02:30:13;;;;;;;;;;;;;;;9.38;70.04;99419.81;5092536;28;19916;-80
2023/12/15 02:32:38;;;;;;;;;;;;;;;9.40;69.46;99427.53;5092387;28;20050;-81
2023/12/15 02:35:04;;;;;;;;;;;;;;;9.39;69.48;99420.63;5092469;28;19912;-81
2023/12/15 02:37:29;;;;;;;;;;;;;;;9.37;70.02;99433.97;5092437;28;20381;-80
2023/12/15 02:39:55;;;;;;;;;;;;;;;9.29;69.85;99428.75;5092106;28;20410;-80
2023/12/15 02:42:20;;;;;;;;;;;;;;;9.33;69.83;99445.03;5090717;28;20002;-80
2023/12/15 02:44:45;;;;;;;;;;;;;;;9.28;70.31;99442.91;5092184;28;20012;-79
2023/12/15 02:47:11;;;;;;;;;;;;;;;9.30;69.86;99440.94;5092117;28;20470;-80
2023/12/15 02:49:40;;;;;;;;;;;;;;;9.34;70.15;99446.69;5092250;28;19912;-80
2023/12/15 02:52:06;;;;;;;;;;;;;;;9.34;70.13;99444.88;5092200;28;19986;-80
2023/12/15 02:54:32;;;;;;;;;;;;;;;9.36;70.50;99453.41;5092148;28;19918;-80
2023/12/15 02:56:57;;;;;;;;;;;;;;;9.36;70.14;99455.22;5090822;28;20437;-81
2023/12/15 02:59:22;;;;;;;;;;;;;;;9.39;70.08;99466.25;5092074;28;19912;-80
2023/12/15 03:01:48;;;;;;;;;;;;;;;9.36;70.27;99460.50;5091940;28;19939;-80
2023/12/15 03:04:13;;;;;;;;;;;;;;;9.37;70.18;99464.78;5092056;28;19951;-81
2023/12/15 03:06:38;;;;;;;;;;;;;;;9.40;70.04;99467.88;5091910;28;20385;-80
2023/12/15 03:09:04;;;;;;;;;;;;;;;9.37;70.18;99478.78;5091838;28;19916;-80
2023/12/15 03:11:29;;;;;;;;;;;;;;;9.36;70.67;99487.66;5091967;28;19919;-80
2023/12/15 03:13:54;;;;;;;;;;;;;;;9.35;70.47;99486.03;5090525;28;19912;-80
2023/12/15 03:16:21;;;;;;;;;;;;;;;9.33;70.66;99493.28;5091688;28;19912;-80
2023/12/15 03:18:46;;;;;;;;;;;;;;;9.30;71.19;99496.25;5090514;28;20286;-81
2023/12/15 03:21:12;;;;;;;;;;;;;;;9.31;70.79;99497.91;5091783;28;19924;-81
2023/12/15 03:23:37;;;;;;;;;;;;;;;9.31;70.75;99497.91;5091871;28;19912;-81
2023/12/15 03:26:03;;;;;;;;;;;;;;;9.29;70.92;99510.44;5091887;28;19912;-81
2023/12/15 03:28:28;;;;;;;;;;;;;;;9.27;71.33;99501.88;5091938;28;19965;-80
2023/12/15 03:30:53;;;;;;;;;;;;;;;9.28;70.80;99516.69;5091797;28;19912;-80
2023/12/15 03:33:19;;;;;;;;;;;;;;;9.29;70.87;99522.78;5091596;28;19919;-80
2023/12/15 03:35:44;;;;;;;;;;;;;;;9.29;70.89;99528.06;5091549;28;19969;-79
2023/12/15 03:38:11;;;;;;;;;;;;;;;9.26;72.08;99525.75;5092818;28;20389;-80
2023/12/15 03:40:36;;;;;;;;;;;;;;;9.26;71.50;99528.38;5095860;28;19970;-80
2023/12/15 03:43:02;;;;;;;;;;;;;;;9.21;71.68;99536.81;5095841;28;19916;-80
2023/12/15 03:45:27;;;;;;;;;;;;;;;9.18;72.06;99535.31;5095528;28;19912;-81
2023/12/15 03:47:52;;;;;;;;;;;;;;;9.18;71.95;99550.31;5095608;28;19912;-80
2023/12/15 03:50:18;;;;;;;;;;;;;;;9.12;72.78;99551.81;5095715;28;19912;-81
2023/12/15 03:52:43;;;;;;;;;;;;;;;9.12;72.36;99549.16;5095669;28;20396;-80
2023/12/15 03:55:08;;;;;;;;;;;;;;;9.13;72.25;99545.53;5094160;28;19916;-79
2023/12/15 03:57:34;;;;;;;;;;;;;;;9.13;72.22;99536.81;5095395;28;19915;-80
2023/12/15 03:59:59;;;;;;;;;;;;;;;9.13;72.79;99547.34;5094061;28;19912;-79
2023/12/15 04:02:24;;;;;;;;;;;;;;;9.12;72.27;99557.06;5093837;28;19989;-80
2023/12/15 04:04:50;;;;;;;;;;;;;;;9.11;72.74;99565.97;5095577;28;19912;-81
2023/12/15 04:07:15;;;;;;;;;;;;;;;9.10;72.08;99569.59;5095174;28;19924;-80
2023/12/15 04:09:40;;;;;;;;;;;;;;;9.08;72.67;99571.56;5095179;28;19934;-81
2023/12/15 04:12:06;;;;;;;;;;;;;;;9.07;73.18;99563.84;5093946;28;19916;-82
2023/12/15 04:14:32;;;;;;;;;;;;;;;9.08;72.36;99568.13;5095288;28;20023;-81
2023/12/15 04:17:00;;;;;;;;;;;;;;;9.03;73.34;99571.25;5094328;28;20223;-80
2023/12/15 04:19:25;;;;;;;;;;;;;;;9.09;72.61;99567.13;5095168;28;19912;-80
2023/12/15 04:21:51;;;;;;;;;;;;;;;9.09;72.77;99570.56;5094896;28;19966;-80
2023/12/15 04:24:16;;;;;;;;;;;;;;;9.12;72.23;99566.78;5094974;28;19912;-80
2023/12/15 04:26:42;;;;;;;;;;;;;;;9.10;72.30;99572.22;5093603;28;19912;-82
2023/12/15 04:29:19;;;;;;;;;;;;;;;9.11;71.81;99575.69;5094803;28;19912;-80
2023/12/15 04:31:44;;;;;;;;;;;;;;;9.09;72.29;99570.56;5096461;28;19919;-81
2023/12/15 04:34:10;;;;;;;;;;;;;;;9.09;72.46;99572.38;5098877;28;20297;-80
2023/12/15 04:36:35;;;;;;;;;;;;;;;9.11;71.85;99573.03;5094804;28;20369;-80
2023/12/15 04:39:00;;;;;;;;;;;;;;;9.13;71.93;99581.59;5094678;28;19919;-79
2023/12/15 04:41:27;;;;;;;;;;;;;;;9.13;71.91;99584.25;5094578;28;19912;-80
2023/12/15 04:43:52;;;;;;;;;;;;;;;9.15;71.81;99590.97;5094568;28;20437;-80
2023/12/15 04:46:28;;;;;;;;;;;;;;;9.16;71.74;99591.81;5094259;28;19950;-80
2023/12/15 04:48:54;;;;;;;;;;;;;;;9.18;71.39;99600.34;5092273;28;19912;-79
2023/12/15 04:51:19;;;;;;;;;;;;;;;9.18;71.85;99600.34;5094292;28;19912;-79
2023/12/15 04:53:45;;;;;;;;;;;;;;;9.14;71.63;99593.78;5094195;28;19912;-79
2023/12/15 04:56:10;;;;;;;;;;;;;;;9.16;71.62;99611.06;5092798;28;20002;-79
2023/12/15 04:58:36;;;;;;;;;;;;;;;9.18;71.73;99603.00;5094234;28;19995;-79
2023/12/15 05:01:02;;;;;;;;;;;;;;;9.18;71.37;99616.97;5094315;28;19908;-80
2023/12/15 05:03:28;;;;;;;;;;;;;;;9.20;71.33;99619.44;5092748;28;19916;-79
2023/12/15 05:05:53;;;;;;;;;;;;;;;9.19;71.49;99617.81;5092416;28;19920;-79
2023/12/15 05:08:18;;;;;;;;;;;;;;;9.19;71.35;99620.44;5094045;28;19985;-79
2023/12/15 05:10:44;;;;;;;;;;;;;;;9.14;71.40;99628.03;5094106;28;20373;-79
2023/12/15 05:13:09;;;;;;;;;;;;;;;9.18;71.70;99631.97;5094019;28;20377;-79
2023/12/15 05:15:34;;;;;;;;;;;;;;;9.17;71.85;99638.22;5093965;28;19912;-79
2023/12/15 05:17:59;;;;;;;;;;;;;;;9.18;71.19;99648.59;5094018;28;19919;-79
2023/12/15 05:20:25;;;;;;;;;;;;;;;9.16;71.66;99647.94;5093755;28;20467;-79
2023/12/15 05:22:50;;;;;;;;;;;;;;;9.19;71.11;99655.50;5092234;28;19917;-80
2023/12/15 05:25:15;;;;;;;;;;;;;;;9.18;71.22;99656.50;5093614;28;19935;-80
2023/12/15 05:27:41;;;;;;;;;;;;;;;9.20;71.17;99653.69;5093532;28;20003;-79
2023/12/15 05:30:06;;;;;;;;;;;;;;;9.13;70.97;99664.06;5092354;28;19913;-81
2023/12/15 05:32:32;;;;;;;;;;;;;;;9.17;71.12;99664.56;5092247;28;19912;-81
2023/12/15 05:34:57;;;;;;;;;;;;;;;9.18;71.38;99664.41;5093501;28;20007;-80
2023/12/15 05:37:22;;;;;;;;;;;;;;;9.18;71.16;99674.13;5093537;28;19912;-80
2023/12/15 05:39:47;;;;;;;;;;;;;;;9.16;71.13;99676.09;5092105;28;19908;-80
2023/12/15 05:42:13;;;;;;;;;;;;;;;9.12;71.17;99685.31;5093346;28;19930;-81
2023/12/15 05:44:39;;;;;;;;;;;;;;;9.14;71.25;99688.59;5093297;28;19947;-80
2023/12/15 05:47:04;;;;;;;;;;;;;;;9.12;71.53;99685.31;5093444;28;19995;-78
2023/12/15 05:49:30;;;;;;;;;;;;;;;9.14;71.57;99678.06;5107075;28;19999;-81
2023/12/15 05:51:55;;;;;;;;;;;;;;;9.13;71.91;99695.69;5096922;28;19969;-81
2023/12/15 05:54:20;;;;;;;;;;;;;;;9.17;71.58;99704.09;5093077;28;19919;-81
2023/12/15 05:56:46;;;;;;;;;;;;;;;9.19;71.53;99707.38;5091790;28;19970;-80
2023/12/15 05:59:11;;;;;;;;;;;;;;;9.21;71.09;99708.03;5093483;28;19965;-81
2023/12/15 06:01:36;;;;;;;;;;;;;;;9.24;71.70;99723.50;5091879;28;20388;-81
2023/12/15 06:04:01;;;;;;;;;;;;;;;8.01;71.69;99531.38;5093066;28;20003;-81
2023/12/15 06:06:27;;;;;;;;;;;;;;;9.23;71.65;99729.78;5092926;28;19977;-82
2023/12/15 06:08:52;;;;;;;;;;;;;;;9.22;72.04;99731.56;5091510;28;19916;-81
2023/12/15 06:11:17;;;;;;;;;;;;;;;9.22;72.43;99728.94;5091569;28;19919;-81
2023/12/15 06:13:43;;;;;;;;;;;;;;;9.22;71.91;99736.84;5092830;28;19920;-81
2023/12/15 06:16:15;;;;;;;;;;;;;;;9.23;72.72;99737.66;5092622;28;20403;-81
2023/12/15 06:18:41;;;;;;;;;;;;;;;9.22;72.17;99736.03;5092601;28;20000;-81
2023/12/15 06:21:06;;;;;;;;;;;;;;;9.22;72.36;99739.47;5092260;28;19956;-81
2023/12/15 06:23:31;;;;;;;;;;;;;;;9.22;72.28;99744.75;5093357;28;19916;-79
2023/12/15 06:25:57;;;;;;;;;;;;;;;9.23;72.48;99756.94;5092839;28;19916;-80
2023/12/15 06:28:22;;;;;;;;;;;;;;;9.23;72.47;99759.56;5103024;28;20388;-80
2023/12/15 06:30:48;;;;;;;;;;;;;;;9.24;72.21;99773.56;5106810;28;19922;-80
2023/12/15 06:33:13;;;;;;;;;;;;;;;9.21;72.37;99772.09;5092319;28;19917;-82
2023/12/15 06:35:39;;;;;;;;;;;;;;;9.23;72.34;99778.00;5098407;28;19919;-81
2023/12/15 06:38:04;;;;;;;;;;;;;;;9.22;72.88;99779.00;5103756;28;19983;-80
2023/12/15 06:40:29;;;;;;;;;;;;;;;9.21;73.30;99794.97;5081426;28;19912;-80
2023/12/15 06:42:55;;;;;;;;;;;;;;;9.17;72.83;99805.00;5094188;28;20426;-80
2023/12/15 06:45:20;;;;;;;;;;;;;;;9.14;72.98;99802.69;5093823;28;20308;-81
2023/12/15 06:47:46;;;;;;;;;;;;;;;9.16;73.04;99803.34;5094983;28;19912;-80
2023/12/15 06:50:11;;;;;;;;;;;;;;;9.16;73.49;99806.00;5112263;28;20372;-81
2023/12/15 06:52:36;;;;;;;;;;;;;;;9.12;73.05;99812.56;5112282;28;19942;-80
2023/12/15 06:55:02;;;;;;;;;;;;;;;9.10;72.93;99813.72;5109932;28;20389;-81
2023/12/15 06:57:28;;;;;;;;;;;;;;;9.12;73.35;99831.00;5106674;28;20016;-80
2023/12/15 06:59:53;;;;;;;;;;;;;;;9.14;73.61;99842.22;5091994;28;20381;-80
2023/12/15 07:02:18;;;;;;;;;;;;;;;9.17;73.32;99835.78;5091919;28;20023;-80
2023/12/15 07:04:44;;;;;;;;;;;;;;;9.20;73.31;99835.47;5091162;28;20013;-80
2023/12/15 07:07:09;;;;;;;;;;;;;;;9.19;73.33;99821.47;5092005;28;20014;-80
2023/12/15 07:09:34;;;;;;;;;;;;;;;9.19;73.76;99815.38;5091719;28;19912;-81
2023/12/15 07:12:01;;;;;;;;;;;;;;;9.17;73.69;99822.63;5090440;28;20403;-81
2023/12/15 07:14:26;;;;;;;;;;;;;;;9.14;73.85;99822.94;5094241;28;19970;-80
2023/12/15 07:16:51;;;;;;;;;;;;;;;9.16;73.95;99834.16;5098468;28;19916;-82
2023/12/15 07:19:17;;;;;;;;;;;;;;;9.18;73.32;99834.81;5091804;28;19927;-81
2023/12/15 07:21:42;;;;;;;;;;;;;;;9.18;73.42;99838.28;5109520;28;19920;-80
2023/12/15 07:24:08;;;;;;;;;;;;;;;9.19;73.72;99842.56;5110431;28;20373;-81
2023/12/15 07:26:33;;;;;;;;;;;;;;;9.18;73.87;99858.53;5110594;28;19976;-80
2023/12/15 07:28:58;;;;;;;;;;;;;;;9.17;73.82;99868.22;5112067;28;19904;-80
2023/12/15 07:31:23;;;;;;;;;;;;;;;9.19;74.52;99878.59;5108045;28;19945;-80
2023/12/15 07:33:49;;;;;;;;;;;;;;;9.19;73.93;99875.97;5092657;28;19963;-82
2023/12/15 07:36:14;;;;;;;;;;;;;;;9.19;74.27;99878.59;5091441;28;19912;-81
2023/12/15 07:38:39;;;;;;;;;;;;;;;9.18;75.05;99869.06;5091327;28;20003;-82
2023/12/15 07:41:06;;;;;;;;;;;;;;;9.18;74.89;99869.06;5091507;28;20344;-82
2023/12/15 07:43:31;;;;;;;;;;;;;;;9.15;74.89;99867.56;5090243;28;19920;-80
2023/12/15 07:45:57;;;;;;;;;;;;;;;9.08;75.36;99858.66;5110211;28;19922;-80
2023/12/15 07:48:22;;;;;;;;;;;;;;;9.05;76.94;99863.44;5112104;28;19931;-82
2023/12/15 07:50:48;;;;;;;;;;;;;;;9.07;74.90;99872.00;5107244;28;20500;-82
2023/12/15 07:53:13;;;;;;;;;;;;;;;9.03;75.94;99860.94;5093319;28;19912;-81
2023/12/15 07:55:38;;;;;;;;;;;;;;;9.00;76.07;99870.97;5096744;28;19919;-80
2023/12/15 07:58:04;;;;;;;;;;;;;;;8.99;76.59;99891.22;5091280;28;19999;-81
2023/12/15 08:00:29;;;;;;;;;;;;;;;9.01;75.73;99909.50;5091634;28;19918;-82
2023/12/15 08:02:54;;;;;;;;;;;;;;;8.89;76.17;99901.84;5091618;28;19916;-81
2023/12/15 08:05:20;;;;;;;;;;;;;;;8.93;75.68;99912.09;5091465;28;19998;-81
2023/12/15 08:07:45;;;;;;;;;;;;;;;8.93;77.02;99915.56;5106651;28;20308;-81
2023/12/15 08:10:10;;;;;;;;;;;;;;;8.95;76.17;99904.88;5087781;28;19973;-80
2023/12/15 08:12:36;;;;;;;;;;;;;;;8.97;76.49;99911.63;5071192;28;20308;-80
2023/12/15 08:15:01;;;;;;;;;;;;;;;8.98;76.75;99920.34;5071104;28;19935;-80
2023/12/15 08:17:26;;;;;;;;;;;;;;;8.98;76.92;99915.91;5107904;28;19922;-80
2023/12/15 08:19:51;;;;;;;;;;;;;;;9.01;76.22;99915.59;5110977;28;19919;-81
2023/12/15 08:22:17;;;;;;;;;;;;;;;9.02;76.46;99929.59;5110151;28;20277;-80
2023/12/15 08:24:43;;;;;;;;;;;;;;;9.01;76.73;99936.66;5111811;28;20380;-80
2023/12/15 08:27:08;;;;;;;;;;;;;;;9.02;75.89;99946.22;5115776;28;19912;-82
2023/12/15 08:29:33;;;;;;;;;;;;;;;9.01;77.94;99947.19;5113497;28;19919;-81
2023/12/15 08:31:58;;;;;;;;;;;;;;;9.00;78.22;99956.09;5085373;28;20507;-80
2023/12/15 08:34:25;;;;;;;;;;;;;;;9.03;76.73;99958.41;5076318;28;20013;-81
2023/12/15 08:36:50;;;;;;;;;;;;;;;9.03;76.87;99952.31;5090424;28;19955;-80
2023/12/15 08:39:16;;;;;;;;;;;;;;;9.05;75.82;99953.81;5089472;28;19923;-82
2023/12/15 08:41:41;;;;;;;;;;;;;;;9.06;76.11;99967.78;5103881;28;19912;-84
2023/12/15 08:44:06;;;;;;;;;;;;;;;9.10;75.32;99974.41;5115287;28;19941;-82
2023/12/15 08:46:32;;;;;;;;;;;;;;;9.08;76.42;99964.03;5098803;28;19908;-82
2023/12/15 08:48:57;;;;;;;;;;;;;;;9.05;76.34;99958.25;5103294;28;19916;-83
2023/12/15 08:51:22;;;;;;;;;;;;;;;9.08;76.74;99969.28;5094117;28;19920;-82
2023/12/15 08:53:48;;;;;;;;;;;;;;;9.09;76.76;99973.56;5094082;28;19912;-81
2023/12/15 08:56:13;;;;;;;;;;;;;;;9.12;76.54;99964.53;5093979;28;19912;-81
2023/12/15 08:58:38;;;;;;;;;;;;;;;9.13;77.46;99955.66;5093947;28;19934;-81
2023/12/15 09:01:04;;;;;;;;;;;;;;;9.15;76.47;99951.03;5092998;28;19920;-82
2023/12/15 09:03:29;;;;;;;;;;;;;;;9.19;76.76;99955.00;5091018;28;20286;-80
2023/12/15 09:05:54;;;;;;;;;;;;;;;9.14;76.25;99963.38;5086177;28;19920;-81
2023/12/15 09:08:20;;;;;;;;;;;;;;;9.17;76.55;99972.78;5084327;28;19959;-79
2023/12/15 09:10:50;;;;;;;;;;;;;;;9.17;77.45;99978.06;5094785;28;19908;-80
2023/12/15 09:13:15;;;;;;;;;;;;;;;9.16;76.96;99990.41;5081015;28;20007;-79
2023/12/15 09:15:41;;;;;;;;;;;;;;;9.16;76.31;99986.94;5084523;28;20017;-81
2023/12/15 09:18:06;;;;;;;;;;;;;;;9.14;77.54;99981.81;5110275;28;19997;-81
2023/12/15 09:20:31;;;;;;;;;;;;;;;9.12;78.04;99985.59;5080685;28;20451;-80
2023/12/15 09:22:57;;;;;;;;;;;;;;;9.13;76.80;99988.06;5090033;28;19920;-82
2023/12/15 09:25:22;;;;;;;;;;;;;;;9.14;77.36;99999.44;5089252;28;19952;-81
2023/12/15 09:27:47;;;;;;;;;;;;;;;9.12;76.76;99988.25;5080086;28;19960;-81
2023/12/15 09:30:13;;;;;;;;;;;;;;;9.12;76.86;99985.59;5078726;28;19981;-81
2023/12/15 09:32:38;;;;;;;;;;;;;;;9.14;77.02;99981.81;5086045;28;19916;-83
2023/12/15 09:35:05;;;;;;;;;;;;;;;9.14;76.49;99983.63;5091382;28;19973;-82
2023/12/15 09:37:30;;;;;;;;;;;;;;;9.10;77.81;99974.41;5091725;28;19912;-84
2023/12/15 09:39:56;;;;;;;;;;;;;;;9.09;77.56;99970.94;5103432;28;19915;-81
2023/12/15 09:42:23;;;;;;;;;;;;;;;9.11;77.47;99966.34;5091911;28;19920;-82
2023/12/15 09:44:49;;;;;;;;;;;;;;;9.14;77.50;99978.38;5094226;28;19912;-83
2023/12/15 09:47:14;;;;;;;;;;;;;;;9.14;77.16;99987.09;5096903;28;19912;-82
2023/12/15 09:49:41;;;;;;;;;;;;;;;9.17;77.98;99991.22;5094622;28;20381;-82
2023/12/15 09:52:07;;;;;;;;;;;;;;;9.16;77.24;100003.56;5092603;28;19927;-82
2023/12/15 09:54:34;;;;;;;;;;;;;;;9.17;77.30;100002.59;5091361;28;20003;-81
2023/12/15 09:56:59;;;;;;;;;;;;;;;9.13;79.13;99995.16;5085990;28;19922;-80
2023/12/15 09:59:25;;;;;;;;;;;;;;;9.13;77.28;99998.63;5082032;28;19916;-79
2023/12/15 10:01:50;;;;;;;;;;;;;;;9.12;78.96;99990.88;5091747;28;19916;-80
2023/12/15 10:04:15;;;;;;;;;;;;;;;9.14;78.86;99984.47;5093126;28;19981;-79
2023/12/15 10:06:41;;;;;;;;;;;;;;;9.12;78.35;99980.34;5092793;28;19920;-80
2023/12/15 10:09:13;;;;;;;;;;;;;;;9.14;78.20;99991.53;5092745;28;19916;-80
2023/12/15 10:11:39;;;;;;;;;;;;;;;9.15;78.50;100004.56;5092836;28;20390;-80
2023/12/15 10:14:07;;;;;;;;;;;;;;;9.17;78.95;99996.50;5092717;28;20381;-80
2023/12/15 10:16:32;;;;;;;;;;;;;;;9.19;78.52;100002.44;5100605;28;19946;-80
2023/12/15 10:18:58;;;;;;;;;;;;;;;9.18;79.32;99990.25;5092712;28;19916;-79
2023/12/15 10:21:23;;;;;;;;;;;;;;;9.19;78.92;99994.53;5109369;28;19923;-79
2023/12/15 10:23:48;;;;;;;;;;;;;;;9.22;77.92;99999.47;5112377;28;19948;-79
2023/12/15 10:26:14;;;;;;;;;;;;;;;9.21;78.51;100003.09;5090419;28;20006;-79
2023/12/15 10:28:40;;;;;;;;;;;;;;;9.18;78.20;100003.41;5088732;28;19923;-79
2023/12/15 10:31:06;;;;;;;;;;;;;;;9.18;78.98;100004.25;5092503;28;20388;-79
2023/12/15 10:33:35;;;;;;;;;;;;;;;9.17;79.16;100014.94;5090610;28;20071;-79
2023/12/15 10:36:01;;;;;;;;;;;;;;;9.17;78.46;100026.28;5092299;28;19920;-80
2023/12/15 10:38:27;;;;;;;;;;;;;;;9.17;78.44;100022.84;5082306;28;20329;-79
2023/12/15 10:40:53;;;;;;;;;;;;;;;9.16;78.84;100023.81;5080907;28;19984;-79
2023/12/15 10:43:20;;;;;;;;;;;;;;;9.17;77.95;100022.84;5092221;28;20441;-79
2023/12/15 10:45:46;;;;;;;;;;;;;;;9.17;80.16;100018.41;5099476;28;19912;-78
2023/12/15 10:48:12;;;;;;;;;;;;;;;9.14;79.27;100020.50;5096382;28;20385;-78
2023/12/15 10:50:41;;;;;;;;;;;;;;;9.14;79.71;100047.69;5093849;28;19918;-80
2023/12/15 10:53:07;;;;;;;;;;;;;;;9.17;79.71;100043.91;5098907;28;19985;-80
2023/12/15 10:55:32;;;;;;;;;;;;;;;9.19;78.71;100049.84;5086048;28;20342;-79
2023/12/15 10:58:01;;;;;;;;;;;;;;;9.14;79.44;100045.06;5100303;28;20294;-79
2023/12/15 11:00:26;;;;;;;;;;;;;;;9.16;78.18;100043.09;5091969;28;19920;-79
2023/12/15 11:02:53;;;;;;;;;;;;;;;9.16;77.73;100048.34;5090538;28;19923;-76
2023/12/15 11:05:18;;;;;;;;;;;;;;;9.09;78.17;100059.69;5112206;28;19916;-79
2023/12/15 11:07:44;;;;;;;;;;;;;;;9.05;78.53;100058.34;5112176;28;20339;-78
2023/12/15 11:10:12;;;;;;;;;;;;;;;9.05;78.41;100071.50;5112008;28;20308;-79
2023/12/15 11:12:38;;;;;;;;;;;;;;;9.04;78.51;100069.84;5111993;28;19941;-78
2023/12/15 11:15:04;;;;;;;;;;;;;;;9.03;78.76;100084.81;5110743;28;19911;-78
2023/12/15 11:17:30;;;;;;;;;;;;;;;8.95;78.48;100078.69;5112093;28;19912;-78
2023/12/15 11:20:08;;;;;;;;;;;;;;;8.91;77.68;100075.50;5111757;28;20447;-79
2023/12/15 11:23:00;;;;;;;;;;;;;;;8.81;78.45;100056.34;5101869;28;19934;-79
2023/12/15 11:25:36;;;;;;;;;;;;;;;8.81;79.62;100045.81;5088431;28;19916;-80
2023/12/15 11:28:15;;;;;;;;;;;;;;;8.85;79.29;100057.69;5091564;28;20381;-83
2023/12/15 11:30:42;;;;;;;;;;;;;;;8.87;79.11;100061.00;5091705;28;19919;-79
2023/12/15 11:33:23;;;;;;;;;;;;;;;8.85;78.79;100071.66;5091283;28;19999;-80
2023/12/15 11:35:51;;;;;;;;;;;;;;;8.77;79.79;100078.69;5091589;28;19911;-79
2023/12/15 11:38:16;;;;;;;;;;;;;;;8.82;78.85;100084.31;5090109;28;19913;-79
2023/12/15 11:40:42;;;;;;;;;;;;;;;8.77;78.76;100081.31;5097688;28;19935;-79
2023/12/15 11:43:07;;;;;;;;;;;;;;;8.75;78.68;100084.09;5097444;28;19916;-79
2023/12/15 11:45:33;;;;;;;;;;;;;;;8.74;78.87;100076.34;5092240;28;19912;-80
2023/12/15 11:47:58;;;;;;;;;;;;;;;8.78;79.04;100086.44;5091877;28;19911;-81
2023/12/15 11:50:23;;;;;;;;;;;;;;;8.83;78.62;100080.72;5093353;28;19923;-80
2023/12/15 11:52:49;;;;;;;;;;;;;;;8.86;79.39;100077.78;5073829;28;19913;-81
2023/12/15 11:55:17;;;;;;;;;;;;;;;8.84;78.21;100083.19;5072232;28;19969;-79
2023/12/15 11:57:42;;;;;;;;;;;;;;;8.87;78.25;100089.94;5085346;28;19912;-79
2023/12/15 12:00:09;;;;;;;;;;;;;;;8.88;78.49;100110.88;5094533;28;19941;-79
2023/12/15 12:02:36;;;;;;;;;;;;;;;8.89;77.04;100096.72;5092840;28;20358;-79
2023/12/15 12:05:01;;;;;;;;;;;;;;;8.83;77.65;100104.41;5094246;28;20473;-79
2023/12/15 12:07:28;;;;;;;;;;;;;;;8.83;77.78;100104.41;5095080;28;20018;-82
2023/12/15 12:09:53;;;;;;;;;;;;;;;8.81;78.24;100109.81;5105215;28;19976;-80
2023/12/15 12:12:18;;;;;;;;;;;;;;;8.83;77.62;100112.31;5114238;28;19911;-81
2023/12/15 12:14:43;;;;;;;;;;;;;;;8.82;77.61;100114.09;5109996;28;20025;-79
2023/12/15 12:17:10;;;;;;;;;;;;;;;8.86;77.20;100110.19;5085189;28;19930;-80
2023/12/15 12:19:40;;;;;;;;;;;;;;;8.83;77.53;100101.78;5084882;28;19923;-79
2023/12/15 12:22:08;;;;;;;;;;;;;;;8.79;77.26;100100.44;5097234;28;20009;-80
2023/12/15 12:24:37;;;;;;;;;;;;;;;8.76;78.29;100106.81;5087589;28;19915;-79
2023/12/15 12:27:02;;;;;;;;;;;;;;;8.75;78.70;100109.59;5113676;28;19912;-79
2023/12/15 12:29:31;;;;;;;;;;;;;;;8.75;77.63;100105.16;5102789;27;20362;-80
2023/12/15 12:31:56;;;;;;;;;;;;;;;8.68;78.52;100109.38;5082025;28;20473;-80
2023/12/15 12:34:21;;;;;;;;;;;;;;;8.63;78.17;100111.66;5089281;28;19991;-80
2023/12/15 12:36:47;;;;;;;;;;;;;;;8.64;78.73;100117.75;5096360;28;19916;-79
2023/12/15 12:39:12;;;;;;;;;;;;;;;8.66;79.06;100124.50;5097835;28;19911;-79
2023/12/15 12:41:37;;;;;;;;;;;;;;;8.62;78.83;100123.16;5099358;28;19916;-80
2023/12/15 12:44:03;;;;;;;;;;;;;;;8.63;78.68;100119.53;5108586;28;19916;-79
2023/12/15 12:46:28;;;;;;;;;;;;;;;8.60;79.01;100122.47;5096060;28;20031;-79
2023/12/15 12:48:53;;;;;;;;;;;;;;;8.59;78.44;100126.91;5092144;28;20179;-80